In Rescue
 
Open Full Screen Window  High Contrast Mode
Wind Gusting 16 knots
10
January 24, 2020 8:19 PM EST
Present Weather: Light Snow
Weather Information
Wind Direction
  080 °
Wind Speed
  10 kt (12 mph)
Wind Gust
  16 kt (18 mph)
Altimeter
29.93 in
Visibility
5 SM
Temperature
00° C
32° F
Dewpoint
00° C
32° F
Humidity
100%
1hr Rain Fall
00.00 in.
24hr Rain Fall
00.03 in.
Sky Condition
Overcast @ 3,200 ft
Scattered @ 1,500 ft
Scattered @ 900 ft
MVFR

METAR KISQ 250119Z AUTO 08010G16KT 5SM -SN SCT009 SCT015 OVC032 00/00 A2993 RMK AO2 T00021002

FAA Disclaimer: The data displayed is for advisory purposes only and is not to be used for flight planning or operations.